Airfield :
LOGIN :

Register | Disclaimer

   EN    FR    IT 

 










Legend :    VFR   Marginal VFR   IFR   Intensive IFR   Very Intensive IFR
Visi :
Ceiling :
>= 8 km
>= 3000ft
5 to 8 km
1000 to 3000 ft
1500m to 5 km
500 to 1000 ft
800 to 1500m
200 to 500 ft
< 800m
< 200 ft
Symbols :   Thunderstorms  Fog  Heavy snow  Heavy precipitations  Wind > 20 kt
SIGMETs :     Misc.  Thunderstorms  Icing  Turbulence  Mountain Waves  Volcanic Ashes







- Airport Elevation : 791 ft
- IATA code : KRK


EPKK - Krakow-Balice

CURRENT METAR :
  • 210100Z 05012KT 7000 OVC007 M01/M02 Q1017 R25/59//94

EXPIRED METARs :
  • 210030Z 06011KT 6000 OVC007 M01/M02 Q1017 REFZDZ R25/59//94
  • 210000Z 05012KT 8000 -FZDZ OVC007 M01/M02 Q1017 R25/59//94
  • 202330Z 06014KT 6000 -FZDZ OVC007 M01/M02 Q1017 R25/59//94
  • 202300Z 06014KT 8000 -FZDZ OVC007 M01/M02 Q1017 R25/59//94
  • 202230Z 06013KT 6000 -FZDZ OVC007 M01/M02 Q1017 R25/59//94

TAF TAF EPKK
Valid from the 21 at 00:00 until the 22 at 00:00 UTC


202330Z 2100/2124 06011KT 6000 OVC007
TEMPO 2100/2106 2500 FZDZ SN BR BKN004
TEMPO 2106/2124 4000 -SN BR BKN011
PROB40
TEMPO 2106/2111 -FZDZ
No reported NOTAMs for that airfield.
1 SIGMET reported for the Warszawa FIR (EPWW) :
 
Severe icing with freezing rain
EPWW SIGMET 1 VALID 210110/210400 EPWA
EPWW WARSAW FIR SEV ICE (FZRA) FCST S OF LINE N5020 E02340 - N5100 E01950 - N5020 E01650 SFC/FL050 STNR WKN=



MET'MAP, your aeronautical weather chart ! - Copyright ORBIFLY December 2007 - Disclaimer

ORBIFLY MET'MAP TEAM :

Programming & Development : Alexandra Zaïnal
Concept & Development : Baudouin d'Aumeries
Co-Development & Prog : Marc-Olivier Méhu
Technical & hardware support : Manuel Goepfert

Contact : metmap@orbifly.com




SOURCES & CREDITS :

   NOAA